Aérodrome :







RETROUVEZ-NOUS SUR...

 
LOGIN :

S'inscrire | Disclaimer

   EN    FR    IT 

 









Légende :    VFR   VFR Marginal   IFR   IFR Intensif   IFR Très Intensif
Visi : 
Plafond : 
>= 8 km
>= 3000ft
5 à 8 km
1000 à 3000 ft
1500m à 5 km
500 à 1000 ft
800 à 1500m
200 à 500 ft
< 800m
< 200 ft
Symboles :   Orages  Brouillard  Fortes neiges  Fortes précipitations  Vent > 20 kt






- Altitude de l'aérodrome : 792 ft
- Code IATA : YSC


CYSC - Sherbrooke

DERNIER METAR :
  • 261600Z AUTO 02007KT 350V050 9SM FEW065 BKN087 01/M06 A3002 RMK SLP177

METARs EXPIRÉS :
  • 261500Z AUTO 04005KT 360V070 9SM CLR 00/M06 A3003 RMK SLP180
  • 261400Z AUTO 05004KT 010V080 9SM CLR M01/M06 A3003 RMK SLP183

TAF TAF CYSC
Valide du 26 à 11h jusqu'au 26 à 23h UTC


261038Z 2611/2623 VRB03KT P6SM BKN070
FM261600 03006KT P6SM BKN030
FM262100 04010KT P6SM BKN020
BECMG 2621/2623 10012KT RMK FCST BASED ON AUTO OBS. NXT FCST BY 261800Z



MET'MAP, la Météo Aéronautique d'un coup d'oeil ! - Copyright ORBIFLY Décembre 2007 - Disclaimer

ORBIFLY MET'MAP TEAM :

Programmation & Développement : Alexandra Zaïnal
Sur une idée originale de : Baudouin d'Aumeries
Assistance à la programmation : Marc-Olivier Méhu
Soutien technique & logistique : Manuel Goepfert

Contact : metmap@orbifly.com




SOURCES & CREDITS :

   NOAA